createdAt,value
2022-09-23T00:01:19.212Z,9.81
2022-09-23T00:03:46.925Z,9.83
2022-09-23T00:06:22.115Z,9.84
2022-09-23T00:08:49.898Z,9.83
2022-09-23T00:11:19.534Z,9.82
2022-09-23T00:13:48.987Z,9.81
2022-09-23T00:16:19.981Z,9.79
2022-09-23T00:18:47.057Z,9.76
2022-09-23T00:21:14.580Z,9.75
2022-09-23T00:23:43.313Z,9.73
2022-09-23T00:26:12.925Z,9.74
2022-09-23T00:28:40.652Z,9.72
2022-09-23T00:31:12.741Z,9.73
2022-09-23T00:33:40.849Z,9.71
2022-09-23T00:36:11.205Z,9.70
2022-09-23T00:38:38.686Z,9.70
2022-09-23T00:41:17.834Z,9.72
2022-09-23T00:43:47.995Z,9.70
2022-09-23T00:46:24.193Z,9.73
2022-09-23T00:48:54.937Z,9.72
2022-09-23T00:51:26.112Z,9.73
2022-09-23T00:53:53.162Z,9.75
2022-09-23T00:56:21.681Z,9.76
2022-09-23T00:58:49.500Z,9.75
2022-09-23T01:01:16.519Z,9.76
2022-09-23T01:03:45.597Z,9.79
2022-09-23T01:06:13.682Z,9.82
2022-09-23T01:08:44.781Z,9.85
2022-09-23T01:11:29.949Z,9.84
2022-09-23T01:14:02.361Z,9.86
2022-09-23T01:16:47.851Z,9.83
2022-09-23T01:19:36.766Z,9.81
2022-09-23T01:22:08.646Z,9.78
2022-09-23T01:25:00.939Z,9.75
2022-09-23T01:27:32.441Z,9.75
2022-09-23T01:30:19.156Z,9.76
2022-09-23T01:33:01.308Z,9.76
2022-09-23T01:35:30.487Z,9.74
2022-09-23T01:38:25.533Z,9.72
2022-09-23T01:41:00.114Z,9.68
2022-09-23T01:43:48.757Z,9.70
2022-09-23T01:46:29.735Z,9.67
2022-09-23T01:49:03.277Z,9.63
2022-09-23T01:51:37.944Z,9.63
2022-09-23T01:54:11.007Z,9.60
2022-09-23T01:56:43.957Z,9.54
2022-09-23T01:59:26.527Z,9.53
2022-09-23T02:02:04.404Z,9.52
2022-09-23T02:04:38.919Z,9.50
2022-09-23T02:07:24.842Z,9.55
2022-09-23T02:10:02.427Z,9.50
2022-09-23T02:12:33.965Z,9.48
2022-09-23T02:15:14.472Z,9.50
2022-09-23T02:17:45.179Z,9.49
2022-09-23T02:20:14.995Z,9.50
2022-09-23T02:22:58.199Z,9.47
2022-09-23T02:25:34.060Z,9.43
2022-09-23T02:28:13.051Z,9.40
2022-09-23T02:30:53.899Z,9.35
2022-09-23T02:33:43.327Z,9.28
2022-09-23T02:36:15.959Z,9.28
2022-09-23T02:38:57.620Z,9.30
2022-09-23T02:41:41.056Z,9.27
2022-09-23T02:44:11.404Z,9.28
2022-09-23T02:46:38.597Z,9.28
2022-09-23T02:49:22.312Z,9.32
2022-09-23T02:51:49.848Z,9.28
2022-09-23T02:54:22.010Z,9.32
2022-09-23T02:56:52.666Z,9.33
2022-09-23T02:59:21.995Z,9.32
2022-09-23T03:02:07.163Z,9.39
2022-09-23T03:04:38.528Z,9.38
2022-09-23T03:07:18.639Z,9.39
2022-09-23T03:09:48.584Z,9.40
2022-09-23T03:12:36.321Z,9.42
2022-09-23T03:15:09.745Z,9.42
2022-09-23T03:18:04.960Z,9.37
2022-09-23T03:20:35.494Z,9.27
2022-09-23T03:23:07.117Z,9.28
2022-09-23T03:25:37.089Z,9.23
2022-09-23T03:28:04.992Z,9.22
2022-09-23T03:30:35.649Z,9.22
2022-09-23T03:33:05.052Z,9.24
2022-09-23T03:35:54.366Z,9.25
2022-09-23T03:38:24.586Z,9.27
2022-09-23T03:40:53.379Z,9.31
2022-09-23T03:43:20.618Z,9.32
2022-09-23T03:45:47.982Z,9.35
2022-09-23T03:48:15.804Z,9.35
2022-09-23T03:50:42.731Z,9.38
2022-09-23T03:53:09.573Z,9.41
2022-09-23T03:55:39.450Z,9.42
2022-09-23T03:58:08.164Z,9.41
2022-09-23T04:00:36.265Z,9.42
2022-09-23T04:03:06.137Z,9.43
2022-09-23T04:05:36.333Z,9.39
2022-09-23T04:08:03.279Z,9.42
2022-09-23T04:10:30.142Z,9.45
2022-09-23T04:12:57.083Z,9.47
2022-09-23T04:15:23.956Z,9.51
2022-09-23T04:17:50.957Z,9.48
2022-09-23T04:20:19.160Z,9.51
2022-09-23T04:22:49.536Z,9.49
2022-09-23T04:25:16.981Z,9.47
2022-09-23T04:27:43.964Z,9.52
2022-09-23T04:30:11.917Z,9.58
2022-09-23T04:32:38.835Z,9.60
2022-09-23T04:35:07.215Z,9.63
2022-09-23T04:37:37.260Z,9.66
2022-09-23T04:40:04.597Z,9.64
2022-09-23T04:42:31.816Z,9.70
2022-09-23T04:44:59.057Z,9.74
2022-09-23T04:47:26.295Z,9.77
2022-09-23T04:49:56.568Z,9.81
2022-09-23T04:52:26.027Z,9.86
2022-09-23T04:54:52.928Z,9.95
2022-09-23T04:57:19.925Z,9.97
2022-09-23T04:59:47.430Z,9.97
2022-09-23T05:02:15.391Z,10.08
2022-09-23T05:04:42.639Z,10.13
2022-09-23T05:07:10.678Z,10.13
2022-09-23T05:09:37.579Z,10.15
2022-09-23T05:12:04.960Z,10.18
2022-09-23T05:14:31.892Z,10.21
2022-09-23T05:16:58.774Z,10.19
2022-09-23T05:19:25.754Z,10.21
2022-09-23T05:21:52.717Z,10.24
2022-09-23T05:24:19.825Z,10.31
2022-09-23T05:26:47.082Z,10.28
2022-09-23T05:29:14.913Z,10.27
2022-09-23T05:31:41.826Z,10.28
2022-09-23T05:34:08.877Z,10.27
2022-09-23T05:36:38.758Z,10.27
2022-09-23T05:39:07.641Z,10.43
2022-09-23T05:41:34.991Z,10.55
2022-09-23T05:44:02.673Z,10.65
2022-09-23T05:46:31.022Z,10.75
2022-09-23T05:49:02.448Z,10.75
2022-09-23T05:51:31.612Z,10.68
2022-09-23T05:53:59.565Z,10.69
2022-09-23T05:56:47.384Z,10.76
2022-09-23T05:59:15.488Z,10.89
2022-09-23T06:01:44.875Z,11.10
2022-09-23T06:04:14.422Z,11.09
2022-09-23T06:06:42.699Z,11.11
2022-09-23T06:09:15.433Z,11.18
2022-09-23T06:11:42.798Z,11.23
2022-09-23T06:14:12.255Z,11.25
2022-09-23T06:16:39.139Z,11.28
2022-09-23T06:19:08.127Z,11.46
2022-09-23T06:21:37.704Z,11.75
2022-09-23T06:24:06.382Z,11.91
2022-09-23T06:26:36.331Z,12.07
2022-09-23T06:29:05.072Z,12.22
2022-09-23T06:31:33.136Z,12.45
2022-09-23T06:34:09.149Z,12.61
2022-09-23T06:36:43.870Z,12.75
2022-09-23T06:39:15.594Z,12.66
2022-09-23T06:41:44.502Z,12.86
2022-09-23T06:44:14.976Z,12.73
2022-09-23T06:46:42.260Z,12.68
2022-09-23T06:49:11.284Z,12.64
2022-09-23T06:51:38.303Z,12.51
2022-09-23T06:54:06.643Z,12.71
2022-09-23T06:56:38.705Z,12.86
2022-09-23T06:59:07.775Z,12.82
2022-09-23T07:01:35.450Z,12.79
2022-09-23T07:04:05.356Z,12.61
2022-09-23T07:06:32.470Z,12.53
2022-09-23T07:09:01.174Z,12.42
2022-09-23T07:11:28.263Z,12.41
2022-09-23T07:13:55.381Z,12.49
2022-09-23T07:16:22.459Z,12.65
2022-09-23T07:18:49.548Z,12.70
2022-09-23T07:21:18.425Z,12.71
2022-09-23T07:23:47.360Z,12.58
2022-09-23T07:26:15.649Z,12.66
2022-09-23T07:28:42.911Z,12.68
2022-09-23T07:31:20.236Z,12.67
2022-09-23T07:33:56.791Z,12.67
2022-09-23T07:36:24.308Z,12.82
2022-09-23T07:38:51.824Z,12.79
2022-09-23T07:41:19.807Z,13.04
2022-09-23T07:43:47.633Z,13.21
2022-09-23T07:46:17.570Z,13.18
2022-09-23T07:48:46.084Z,13.34
2022-09-23T07:51:18.164Z,13.66
2022-09-23T07:53:48.503Z,14.00
2022-09-23T07:56:15.974Z,14.19
2022-09-23T07:58:42.986Z,14.38
2022-09-23T08:01:10.921Z,14.35
2022-09-23T08:03:39.678Z,14.48
2022-09-23T08:06:12.112Z,14.47
2022-09-23T08:08:43.656Z,14.25
2022-09-23T08:11:13.413Z,14.30
2022-09-23T08:13:41.028Z,14.25
2022-09-23T08:16:08.183Z,14.31
2022-09-23T08:18:35.625Z,14.49
2022-09-23T08:21:03.141Z,14.78
2022-09-23T08:23:33.634Z,14.89
2022-09-23T08:26:02.858Z,14.79
2022-09-23T08:28:30.135Z,14.45
2022-09-23T08:30:58.293Z,14.31
2022-09-23T08:33:25.771Z,14.42
2022-09-23T08:35:53.277Z,14.38
2022-09-23T08:38:20.791Z,14.23
2022-09-23T08:40:50.039Z,13.86
2022-09-23T08:43:31.384Z,13.53
2022-09-23T08:46:01.629Z,13.27
2022-09-23T08:48:47.723Z,13.41
2022-09-23T08:51:17.530Z,13.51
2022-09-23T08:53:46.911Z,13.37
2022-09-23T08:56:16.699Z,13.25
2022-09-23T08:59:21.383Z,13.17
2022-09-23T09:02:06.015Z,13.11
2022-09-23T09:04:36.043Z,13.17
2022-09-23T09:07:35.110Z,13.27
2022-09-23T09:10:41.988Z,13.49
2022-09-23T09:13:33.123Z,13.60
2022-09-23T09:16:36.610Z,13.57
2022-09-23T09:19:20.803Z,13.56
2022-09-23T09:21:52.519Z,13.71
2022-09-23T09:24:45.718Z,13.62
2022-09-23T09:27:14.027Z,13.76
2022-09-23T09:29:43.704Z,13.91
2022-09-23T09:32:23.428Z,14.09
2022-09-23T09:34:54.824Z,14.14
2022-09-23T09:37:33.812Z,14.37
2022-09-23T09:40:00.981Z,14.59
2022-09-23T09:42:39.398Z,14.66
2022-09-23T09:45:37.996Z,14.71
2022-09-23T09:48:11.286Z,14.80
2022-09-23T09:50:49.356Z,14.57
2022-09-23T09:53:27.486Z,14.36
2022-09-23T09:56:04.656Z,14.31
2022-09-23T09:58:46.062Z,14.20
2022-09-23T10:01:36.730Z,14.01
2022-09-23T10:04:06.730Z,13.95
2022-09-23T10:06:35.886Z,13.91
2022-09-23T10:09:12.203Z,13.93
2022-09-23T10:11:39.950Z,13.90
2022-09-23T10:14:17.681Z,13.93
2022-09-23T10:16:46.729Z,14.16
2022-09-23T10:19:26.415Z,14.33
2022-09-23T10:21:57.028Z,14.62
2022-09-23T10:24:32.976Z,14.87
2022-09-23T10:27:04.432Z,15.21
2022-09-23T10:29:39.266Z,15.63
2022-09-23T10:32:19.107Z,15.32
2022-09-23T10:34:50.600Z,15.11
2022-09-23T10:37:48.486Z,14.79
2022-09-23T10:40:49.820Z,14.23
2022-09-23T10:43:46.775Z,14.07
2022-09-23T10:46:46.256Z,13.98
2022-09-23T10:49:38.866Z,14.08
2022-09-23T10:52:09.511Z,14.26
2022-09-23T10:54:51.573Z,14.49
2022-09-23T10:57:42.887Z,14.76
2022-09-23T11:00:16.659Z,14.96
2022-09-23T11:03:23.930Z,15.27
2022-09-23T11:06:03.065Z,15.53
2022-09-23T11:08:32.960Z,16.22
2022-09-23T11:11:11.565Z,16.77
2022-09-23T11:14:08.216Z,16.73
2022-09-23T11:17:14.896Z,16.33
2022-09-23T11:19:50.510Z,16.13
2022-09-23T11:22:36.283Z,17.50
2022-09-23T11:25:16.978Z,17.59
2022-09-23T11:28:08.058Z,17.27
2022-09-23T11:31:11.707Z,17.15
2022-09-23T11:33:47.663Z,16.69
2022-09-23T11:36:32.949Z,15.73
2022-09-23T11:39:01.871Z,15.22
2022-09-23T11:41:31.769Z,14.81
2022-09-23T11:44:20.104Z,14.50
2022-09-23T11:47:02.003Z,14.21
2022-09-23T11:49:37.368Z,13.88
2022-09-23T11:52:25.189Z,13.81
2022-09-23T11:54:57.789Z,13.77
2022-09-23T11:57:43.298Z,13.74
2022-09-23T12:00:35.945Z,13.75
2022-09-23T12:03:06.555Z,13.77
2022-09-23T12:05:44.490Z,13.82
2022-09-23T12:08:21.751Z,13.81
2022-09-23T12:11:07.076Z,13.76
2022-09-23T12:14:04.169Z,13.60
2022-09-23T12:16:59.747Z,13.52
2022-09-23T12:20:00.535Z,13.35
2022-09-23T12:23:09.595Z,13.35
2022-09-23T12:25:57.987Z,13.40
2022-09-23T12:28:39.667Z,13.57
2022-09-23T12:31:11.395Z,13.63
2022-09-23T12:33:38.796Z,13.61
2022-09-23T12:36:11.446Z,13.60
2022-09-23T12:39:00.689Z,13.44
2022-09-23T12:41:36.732Z,13.34
2022-09-23T12:44:15.654Z,13.22
2022-09-23T12:46:44.812Z,13.17
2022-09-23T12:49:37.839Z,13.25
2022-09-23T12:52:10.784Z,13.29
2022-09-23T12:54:39.016Z,13.30
2022-09-23T12:57:26.936Z,13.33
2022-09-23T13:00:12.974Z,13.40
2022-09-23T13:03:11.305Z,13.52
2022-09-23T13:06:10.994Z,13.63
2022-09-23T13:08:40.032Z,13.70
2022-09-23T13:11:34.562Z,13.68
2022-09-23T13:14:03.634Z,13.51
2022-09-23T13:16:42.898Z,13.41
2022-09-23T13:19:28.463Z,13.40
2022-09-23T13:22:03.831Z,13.35
2022-09-23T13:24:42.195Z,13.35
2022-09-23T13:27:26.656Z,13.42
2022-09-23T13:30:04.614Z,13.33
2022-09-23T13:32:35.153Z,13.33
2022-09-23T13:35:06.825Z,13.25
2022-09-23T13:37:46.315Z,13.26
2022-09-23T13:40:19.806Z,13.32
2022-09-23T13:43:09.895Z,13.42
2022-09-23T13:45:38.499Z,13.45
2022-09-23T13:48:15.458Z,13.50
2022-09-23T13:50:49.229Z,13.66
2022-09-23T13:53:34.673Z,13.66
2022-09-23T13:56:14.416Z,13.44
2022-09-23T13:58:41.780Z,13.35
2022-09-23T14:01:23.425Z,13.22
2022-09-23T14:03:51.536Z,13.15
2022-09-23T14:06:18.603Z,13.11
2022-09-23T14:08:47.514Z,13.07
2022-09-23T14:11:19.850Z,13.00
2022-09-23T14:13:55.214Z,12.88
2022-09-23T14:16:26.843Z,12.81
2022-09-23T14:18:59.844Z,12.72
2022-09-23T14:21:36.006Z,12.56
2022-09-23T14:24:32.581Z,12.49
2022-09-23T14:27:04.572Z,12.40
2022-09-23T14:29:40.635Z,12.36
2022-09-23T14:32:13.738Z,12.33
2022-09-23T14:34:52.231Z,12.35
2022-09-23T14:37:52.171Z,12.26
2022-09-23T14:40:20.969Z,12.18
2022-09-23T14:42:52.349Z,12.15
2022-09-23T14:45:22.460Z,12.05
2022-09-23T14:47:57.670Z,12.07
2022-09-23T14:50:37.245Z,12.01
2022-09-23T14:53:06.505Z,11.99
2022-09-23T14:55:33.897Z,11.96
2022-09-23T14:58:04.862Z,11.90
2022-09-23T15:00:31.953Z,11.87
2022-09-23T15:03:00.602Z,11.85
2022-09-23T15:05:40.180Z,11.78
2022-09-23T15:08:07.629Z,11.67
2022-09-23T15:10:37.752Z,11.62
2022-09-23T15:13:09.005Z,11.55
2022-09-23T15:15:36.351Z,11.49
2022-09-23T15:18:05.653Z,11.41
2022-09-23T15:20:33.959Z,11.33
2022-09-23T15:23:01.829Z,11.27
2022-09-23T15:25:35.976Z,11.30
2022-09-23T15:28:08.689Z,11.31
2022-09-23T15:30:36.256Z,11.21
2022-09-23T15:33:03.454Z,11.21
2022-09-23T15:35:32.073Z,11.13
2022-09-23T15:38:03.790Z,11.09
2022-09-23T15:40:34.980Z,11.02
2022-09-23T15:43:21.079Z,10.96
2022-09-23T15:45:53.560Z,10.92
2022-09-23T15:48:38.273Z,10.90
2022-09-23T15:51:09.992Z,10.84
2022-09-23T15:53:38.354Z,10.80
2022-09-23T15:56:06.417Z,10.77
2022-09-23T15:58:33.385Z,10.74
2022-09-23T16:01:01.115Z,10.75
2022-09-23T16:03:35.759Z,10.78
2022-09-23T16:06:04.268Z,10.77
2022-09-23T16:08:33.271Z,10.72
2022-09-23T16:11:01.029Z,10.75
2022-09-23T16:13:28.849Z,10.75
2022-09-23T16:15:56.696Z,10.69
2022-09-23T16:18:25.976Z,10.53
2022-09-23T16:20:53.357Z,10.59
2022-09-23T16:23:35.042Z,10.52
2022-09-23T16:26:08.579Z,10.58
2022-09-23T16:28:35.591Z,10.59
2022-09-23T16:31:03.165Z,10.61
2022-09-23T16:33:30.219Z,10.63
2022-09-23T16:35:57.849Z,10.65
2022-09-23T16:38:28.414Z,10.62
2022-09-23T16:41:00.792Z,10.61
2022-09-23T16:43:39.755Z,10.58
2022-09-23T16:46:08.061Z,10.51
2022-09-23T16:48:40.954Z,10.48
2022-09-23T16:51:09.233Z,10.41
2022-09-23T16:53:37.914Z,10.43
2022-09-23T16:56:09.841Z,10.37
2022-09-23T16:58:38.512Z,10.34
2022-09-23T17:01:25.685Z,10.34
2022-09-23T17:03:53.357Z,10.24
2022-09-23T17:06:20.414Z,10.14
2022-09-23T17:08:51.216Z,10.17
2022-09-23T17:11:18.228Z,10.23
2022-09-23T17:13:45.722Z,10.26
2022-09-23T17:16:26.769Z,10.26
2022-09-23T17:18:56.615Z,10.23
2022-09-23T17:21:26.923Z,10.22
2022-09-23T17:23:55.485Z,10.25
2022-09-23T17:26:24.544Z,10.23
2022-09-23T17:28:55.268Z,10.17
2022-09-23T17:31:24.381Z,10.16
2022-09-23T17:33:52.824Z,10.19
2022-09-23T17:36:20.528Z,10.18
2022-09-23T17:38:48.980Z,10.19
2022-09-23T17:41:17.302Z,10.18
2022-09-23T17:43:45.451Z,10.20
2022-09-23T17:46:18.244Z,10.23
2022-09-23T17:48:47.415Z,10.19
2022-09-23T17:51:19.956Z,10.21
2022-09-23T17:53:49.176Z,10.16
2022-09-23T17:56:21.185Z,10.11
2022-09-23T17:58:49.292Z,10.12
2022-09-23T18:01:23.301Z,10.17
2022-09-23T18:04:08.571Z,10.15
2022-09-23T18:06:37.788Z,10.08
2022-09-23T18:09:06.935Z,10.11
2022-09-23T18:11:43.499Z,10.11
2022-09-23T18:14:23.109Z,10.06
2022-09-23T18:16:52.555Z,9.99
2022-09-23T18:19:21.538Z,9.99
2022-09-23T18:21:50.724Z,9.96
2022-09-23T18:24:37.941Z,9.93
2022-09-23T18:27:06.631Z,9.90
2022-09-23T18:29:34.709Z,9.83
2022-09-23T18:32:02.300Z,9.81
2022-09-23T18:34:29.307Z,9.81
2022-09-23T18:36:56.487Z,9.81
2022-09-23T18:39:23.609Z,9.83
2022-09-23T18:41:50.632Z,9.86
2022-09-23T18:44:18.648Z,9.83
2022-09-23T18:46:45.623Z,9.87
2022-09-23T18:49:31.120Z,9.87
2022-09-23T18:51:58.539Z,9.85
2022-09-23T18:54:28.136Z,9.84
2022-09-23T18:56:55.491Z,9.83
2022-09-23T18:59:25.260Z,9.83
2022-09-23T19:01:55.014Z,9.78
2022-09-23T19:04:23.816Z,9.78
2022-09-23T19:06:50.860Z,9.76
2022-09-23T19:09:20.532Z,9.83
2022-09-23T19:11:51.766Z,9.77
2022-09-23T19:14:18.848Z,9.68
2022-09-23T19:16:46.180Z,9.64
2022-09-23T19:19:13.195Z,9.61
2022-09-23T19:21:40.188Z,9.57
2022-09-23T19:24:08.296Z,9.54
2022-09-23T19:26:38.301Z,9.57
2022-09-23T19:29:08.516Z,9.60
2022-09-23T19:31:40.667Z,9.63
2022-09-23T19:34:12.623Z,9.62
2022-09-23T19:36:42.574Z,9.62
2022-09-23T19:39:19.107Z,9.62
2022-09-23T19:41:47.136Z,9.62
2022-09-23T19:44:14.998Z,9.67
2022-09-23T19:46:46.283Z,9.68
2022-09-23T19:49:13.873Z,9.70
2022-09-23T19:51:46.502Z,9.73
2022-09-23T19:54:22.028Z,9.61
2022-09-23T19:56:51.656Z,9.71
2022-09-23T19:59:19.597Z,9.67
2022-09-23T20:01:48.396Z,9.67
2022-09-23T20:04:16.411Z,9.72
2022-09-23T20:06:43.661Z,9.71
2022-09-23T20:09:10.884Z,9.69
2022-09-23T20:11:38.135Z,9.68
2022-09-23T20:14:13.057Z,9.69
2022-09-23T20:16:40.671Z,9.60
2022-09-23T20:19:07.885Z,9.64
2022-09-23T20:21:35.476Z,9.72
2022-09-23T20:24:05.848Z,9.75
2022-09-23T20:26:51.807Z,9.77
2022-09-23T20:29:18.824Z,9.76
2022-09-23T20:31:45.974Z,9.72
2022-09-23T20:34:13.022Z,9.65
2022-09-23T20:36:41.496Z,9.60
2022-09-23T20:39:09.809Z,9.64
2022-09-23T20:41:38.499Z,9.65
2022-09-23T20:44:07.811Z,9.58
2022-09-23T20:46:35.927Z,9.49
2022-09-23T20:49:05.291Z,9.46
2022-09-23T20:51:33.608Z,9.48
2022-09-23T20:54:01.155Z,9.50
2022-09-23T20:56:28.703Z,9.52
2022-09-23T20:59:02.888Z,9.52
2022-09-23T21:01:33.025Z,9.55
2022-09-23T21:04:04.154Z,9.55
2022-09-23T21:06:31.446Z,9.54
2022-09-23T21:08:59.322Z,9.55
2022-09-23T21:11:26.572Z,9.60
2022-09-23T21:13:54.787Z,9.65
2022-09-23T21:16:22.851Z,9.64
2022-09-23T21:18:51.456Z,9.62
2022-09-23T21:21:20.361Z,9.57
2022-09-23T21:23:48.069Z,9.52
2022-09-23T21:26:20.212Z,9.55
2022-09-23T21:28:48.962Z,9.56
2022-09-23T21:31:23.470Z,9.52
2022-09-23T21:34:02.345Z,9.49
2022-09-23T21:36:34.712Z,9.48
2022-09-23T21:39:01.899Z,9.47
2022-09-23T21:41:29.248Z,9.45
2022-09-23T21:43:57.440Z,9.48
2022-09-23T21:46:25.063Z,9.47
2022-09-23T21:48:55.069Z,9.45
2022-09-23T21:51:35.386Z,9.49
2022-09-23T21:54:05.542Z,9.44
2022-09-23T21:56:39.987Z,9.40
2022-09-23T21:59:08.176Z,9.35
2022-09-23T22:01:37.738Z,9.25
2022-09-23T22:04:11.088Z,9.14
2022-09-23T22:06:40.556Z,9.10
2022-09-23T22:09:12.831Z,9.08
2022-09-23T22:11:59.328Z,9.01
2022-09-23T22:14:26.789Z,9.02
2022-09-23T22:16:59.269Z,9.02
2022-09-23T22:19:35.544Z,8.98
2022-09-23T22:22:07.125Z,8.88
2022-09-23T22:24:34.180Z,8.79
2022-09-23T22:27:01.331Z,8.74
2022-09-23T22:29:47.260Z,8.73
2022-09-23T22:32:32.750Z,8.63
2022-09-23T22:34:59.657Z,8.56
2022-09-23T22:37:34.849Z,8.50
2022-09-23T22:40:07.317Z,8.44
2022-09-23T22:42:36.187Z,8.38
2022-09-23T22:45:06.019Z,8.36
2022-09-23T22:47:40.743Z,8.32
2022-09-23T22:50:09.257Z,8.27
2022-09-23T22:52:36.820Z,8.25
2022-09-23T22:55:04.805Z,8.21
2022-09-23T22:57:31.740Z,8.24
2022-09-23T22:59:59.249Z,8.27
2022-09-23T23:02:26.418Z,8.30
2022-09-23T23:04:53.563Z,8.27
2022-09-23T23:07:21.429Z,8.21
2022-09-23T23:09:51.878Z,8.29
2022-09-23T23:12:20.452Z,8.35
2022-09-23T23:14:48.592Z,8.33
2022-09-23T23:17:15.881Z,8.32
2022-09-23T23:19:42.870Z,8.33
2022-09-23T23:22:09.939Z,8.25
2022-09-23T23:24:36.850Z,8.22
2022-09-23T23:27:03.843Z,8.20
2022-09-23T23:29:30.802Z,8.15
2022-09-23T23:31:57.872Z,8.13
2022-09-23T23:34:24.823Z,8.15
2022-09-23T23:36:56.221Z,8.14
2022-09-23T23:39:24.623Z,8.14
2022-09-23T23:41:54.315Z,8.13
2022-09-23T23:44:21.572Z,8.13
2022-09-23T23:46:49.363Z,8.12
2022-09-23T23:49:16.399Z,8.07
2022-09-23T23:51:43.434Z,8.05
2022-09-23T23:54:11.971Z,8.05
2022-09-23T23:56:38.870Z,8.03
2022-09-23T23:59:05.781Z,8.01
